createdAt,value
2023-05-25T00:00:15.770Z,47.4
2023-05-25T00:05:15.731Z,47.6
2023-05-25T00:10:18.708Z,47.6
2023-05-25T00:15:18.716Z,47.6
2023-05-25T00:20:15.672Z,47.6
2023-05-25T00:25:18.953Z,47.6
2023-05-25T00:30:18.719Z,47.5
2023-05-25T00:35:15.805Z,47.9
2023-05-25T00:40:18.737Z,47.9
2023-05-25T00:45:15.837Z,47.9
2023-05-25T00:50:18.774Z,47.9
2023-05-25T00:55:18.777Z,47.9
2023-05-25T01:00:15.776Z,47.9
2023-05-25T01:05:18.771Z,47.9
2023-05-25T01:10:18.757Z,48.0
2023-05-25T01:15:18.757Z,48.1
2023-05-25T01:20:18.755Z,48.1
2023-05-25T01:25:18.770Z,48.1
2023-05-25T01:30:15.888Z,48.1
2023-05-25T01:35:15.802Z,48.3
2023-05-25T01:40:15.848Z,48.5
2023-05-25T01:45:15.833Z,48.8
2023-05-25T01:50:18.818Z,48.8
2023-05-25T01:55:18.796Z,48.8
2023-05-25T02:00:18.789Z,49.0
2023-05-25T02:05:18.785Z,48.9
2023-05-25T02:10:18.784Z,49.1
2023-05-25T02:15:15.858Z,48.9
2023-05-25T02:20:15.834Z,48.9
2023-05-25T02:25:18.841Z,48.8
2023-05-25T02:30:15.874Z,48.8
2023-05-25T02:35:18.933Z,48.7
2023-05-25T02:40:18.821Z,48.7
2023-05-25T02:45:18.812Z,48.6
2023-05-25T02:50:18.840Z,48.4
2023-05-25T02:55:18.865Z,48.4
2023-05-25T03:00:15.833Z,48.3
2023-05-25T03:05:18.840Z,48.3
2023-05-25T03:10:15.793Z,48.2
2023-05-25T03:15:18.855Z,48.2
2023-05-25T03:20:18.831Z,48.3
2023-05-25T03:25:15.832Z,48.3
2023-05-25T03:30:18.844Z,48.0
2023-05-25T03:35:18.865Z,48.0
2023-05-25T03:40:18.831Z,48.0
2023-05-25T03:45:18.838Z,48.1
2023-05-25T03:50:18.782Z,48.1
2023-05-25T03:55:18.788Z,48.1
2023-05-25T04:00:17.142Z,48.1
2023-05-25T04:05:20.106Z,48.1
2023-05-25T04:10:20.048Z,48.1
2023-05-25T04:15:17.162Z,48.1
2023-05-25T04:20:20.149Z,48.1
2023-05-25T04:25:17.202Z,48.1
2023-05-25T04:30:20.127Z,48.2
2023-05-25T04:35:20.098Z,48.2
2023-05-25T04:40:20.042Z,48.2
2023-05-25T04:45:20.096Z,48.2
2023-05-25T04:50:17.095Z,48.2
2023-05-25T04:55:20.116Z,48.2
2023-05-25T05:00:20.076Z,48.2
2023-05-25T05:05:17.100Z,48.2
2023-05-25T05:10:20.088Z,47.9
2023-05-25T05:15:17.029Z,47.9
2023-05-25T05:20:20.206Z,48.1
2023-05-25T05:25:20.102Z,47.8
2023-05-25T05:30:17.180Z,47.9
2023-05-25T05:35:17.140Z,47.7
2023-05-25T05:40:20.123Z,47.4
2023-05-25T05:45:20.119Z,47.2
2023-05-25T05:50:20.124Z,47.3
2023-05-25T05:55:20.125Z,47.0
2023-05-25T06:00:20.119Z,46.9
2023-05-25T06:05:17.226Z,46.7
2023-05-25T06:10:17.166Z,46.6
2023-05-25T06:15:20.143Z,46.6
2023-05-25T06:20:20.145Z,46.5
2023-05-25T06:25:17.151Z,46.4
2023-05-25T06:30:20.223Z,46.4
2023-05-25T06:35:20.223Z,46.4
2023-05-25T06:40:20.139Z,46.3
2023-05-25T06:45:20.124Z,46.2
2023-05-25T06:50:17.175Z,46.2
2023-05-25T06:55:20.146Z,46.1
2023-05-25T07:00:20.155Z,46.1
2023-05-25T07:05:17.242Z,46.0
2023-05-25T07:10:20.178Z,46.0
2023-05-25T07:15:20.239Z,46.0
2023-05-25T07:20:20.175Z,46.0
2023-05-25T07:25:17.252Z,46.0
2023-05-25T07:30:17.266Z,46.0
2023-05-25T07:35:20.234Z,45.9
2023-05-25T07:40:20.181Z,45.9
2023-05-25T07:45:17.285Z,45.8
2023-05-25T07:50:17.168Z,45.8
2023-05-25T07:55:20.188Z,45.7
2023-05-25T08:00:20.141Z,45.6
2023-05-25T08:05:20.281Z,45.6
2023-05-25T08:10:20.203Z,45.5
2023-05-25T08:15:17.218Z,45.4
2023-05-25T08:20:20.306Z,45.4
2023-05-25T08:25:20.276Z,45.4
2023-05-25T08:30:20.239Z,45.1
2023-05-25T08:35:17.073Z,45.1
2023-05-25T08:40:17.237Z,45.1
2023-05-25T08:45:33.511Z,45.0
2023-05-25T08:50:20.314Z,45.0
2023-05-25T08:55:17.243Z,45.0
2023-05-25T09:00:20.245Z,45.0
2023-05-25T09:05:20.234Z,45.0
2023-05-25T09:10:17.253Z,44.9
2023-05-25T09:15:20.231Z,44.9
2023-05-25T09:20:20.256Z,44.9
2023-05-25T09:25:17.262Z,44.9
2023-05-25T09:30:17.303Z,44.9
2023-05-25T09:35:20.276Z,44.9
2023-05-25T09:40:20.197Z,44.5
2023-05-25T09:45:20.197Z,44.4
2023-05-25T09:50:17.069Z,44.4
2023-05-25T09:55:20.452Z,44.5
2023-05-25T10:00:20.205Z,44.5
2023-05-25T10:05:20.224Z,44.4
2023-05-25T10:10:20.207Z,44.5
2023-05-25T10:15:20.259Z,44.2
2023-05-25T10:20:20.290Z,44.2
2023-05-25T10:25:20.249Z,44.3
2023-05-25T10:30:20.251Z,44.4
2023-05-25T10:35:20.261Z,44.5
2023-05-25T10:40:20.271Z,44.6
2023-05-25T10:45:20.225Z,44.2
2023-05-25T10:50:20.273Z,44.1
2023-05-25T10:55:17.303Z,44.2
2023-05-25T11:00:20.318Z,44.1
2023-05-25T11:05:20.284Z,43.8
2023-05-25T11:10:20.252Z,44.0
2023-05-25T11:15:17.312Z,43.8
2023-05-25T11:20:20.358Z,44.0
2023-05-25T11:25:17.314Z,43.7
2023-05-25T11:30:20.293Z,43.9
2023-05-25T11:35:20.384Z,44.1
2023-05-25T11:40:20.265Z,43.9
2023-05-25T11:45:17.387Z,43.8
2023-05-25T11:50:17.155Z,43.6
2023-05-25T11:55:20.285Z,43.5
2023-05-25T12:00:20.261Z,43.9
2023-05-25T12:05:17.341Z,43.7
2023-05-25T12:10:20.346Z,44.0
2023-05-25T12:15:19.741Z,43.2
2023-05-25T12:20:17.478Z,43.8
2023-05-25T12:25:20.289Z,43.5
2023-05-25T12:30:20.259Z,43.0
2023-05-25T12:35:20.345Z,43.1
2023-05-25T12:40:20.722Z,42.9
2023-05-25T12:45:17.330Z,42.9
2023-05-25T12:50:17.941Z,42.5
2023-05-25T12:55:17.418Z,42.1
2023-05-25T13:00:20.438Z,41.8
2023-05-25T13:05:20.429Z,42.1
2023-05-25T13:10:20.413Z,41.7
2023-05-25T13:15:20.269Z,41.6
2023-05-25T13:20:17.369Z,41.8
2023-05-25T13:25:17.392Z,41.6
2023-05-25T13:30:20.402Z,41.6
2023-05-25T13:35:20.346Z,41.4
2023-05-25T13:40:20.337Z,42.7
2023-05-25T13:45:17.199Z,41.8
2023-05-25T13:50:17.425Z,42.0
2023-05-25T13:55:20.378Z,41.5
2023-05-25T14:00:20.312Z,41.4
2023-05-25T14:05:20.351Z,41.3
2023-05-25T14:10:20.347Z,41.5
2023-05-25T14:15:20.332Z,41.5
2023-05-25T14:20:20.414Z,41.9
2023-05-25T14:25:17.367Z,43.1
2023-05-25T14:30:20.365Z,41.0
2023-05-25T14:35:20.337Z,41.4
2023-05-25T14:40:18.372Z,41.8
2023-05-25T14:45:18.368Z,41.9
2023-05-25T14:50:18.440Z,41.1
2023-05-25T14:55:20.441Z,40.4
2023-05-25T15:00:20.400Z,41.9
2023-05-25T15:05:15.436Z,41.5
2023-05-25T15:10:18.426Z,41.4
2023-05-25T15:15:15.477Z,41.1
2023-05-25T15:20:18.496Z,41.2
2023-05-25T15:25:24.422Z,41.4
2023-05-25T15:30:18.529Z,41.5
2023-05-25T15:35:15.386Z,41.5
2023-05-25T15:40:15.400Z,41.4
2023-05-25T15:45:18.409Z,42.0
2023-05-25T15:50:18.493Z,41.4
2023-05-25T15:55:18.375Z,40.7
2023-05-25T16:00:15.427Z,41.0
2023-05-25T16:05:15.457Z,41.0
2023-05-25T16:10:15.233Z,40.5
2023-05-25T16:15:18.398Z,41.4
2023-05-25T16:20:18.448Z,42.0
2023-05-25T16:25:18.509Z,41.0
2023-05-25T16:30:18.455Z,40.3
2023-05-25T16:35:18.444Z,40.3
2023-05-25T16:40:18.409Z,41.0
2023-05-25T16:45:18.428Z,40.7
2023-05-25T16:50:18.426Z,40.5
2023-05-25T16:55:18.365Z,40.4
2023-05-25T17:00:18.487Z,39.6
2023-05-25T17:05:18.457Z,40.8
2023-05-25T17:10:18.426Z,40.2
2023-05-25T17:15:18.426Z,40.9
2023-05-25T17:20:18.469Z,39.9
2023-05-25T17:25:18.409Z,39.1
2023-05-25T17:30:18.390Z,38.5
2023-05-25T17:35:18.432Z,37.4
2023-05-25T17:40:18.481Z,37.7
2023-05-25T17:45:18.501Z,36.9
2023-05-25T17:50:18.538Z,36.4
2023-05-25T17:55:18.427Z,38.5
2023-05-25T18:00:18.510Z,37.9
2023-05-25T18:05:18.489Z,38.0
2023-05-25T18:10:18.444Z,37.5
2023-05-25T18:15:18.424Z,35.9
2023-05-25T18:20:18.517Z,36.9
2023-05-25T18:25:18.438Z,37.8
2023-05-25T18:30:18.437Z,37.6
2023-05-25T18:35:19.324Z,37.6
2023-05-25T18:40:18.496Z,36.6
2023-05-25T18:45:15.465Z,37.6
2023-05-25T18:50:18.486Z,37.8
2023-05-25T18:55:15.522Z,37.8
2023-05-25T19:00:18.483Z,38.6
2023-05-25T19:05:18.637Z,39.1
2023-05-25T19:10:15.481Z,39.0
2023-05-25T19:15:15.468Z,38.2
2023-05-25T19:20:18.597Z,38.2
2023-05-25T19:25:15.404Z,37.9
2023-05-25T19:30:15.594Z,38.8
2023-05-25T19:35:15.506Z,38.1
2023-05-25T19:40:15.571Z,38.4
2023-05-25T19:45:18.524Z,39.5
2023-05-25T19:50:15.507Z,40.1
2023-05-25T19:55:15.522Z,39.9
2023-05-25T20:00:25.956Z,39.1
2023-05-25T20:05:18.498Z,39.1
2023-05-25T20:10:18.536Z,38.9
2023-05-25T20:15:18.498Z,39.4
2023-05-25T20:20:18.590Z,39.3
2023-05-25T20:25:18.491Z,39.0
2023-05-25T20:30:18.482Z,39.6
2023-05-25T20:35:15.513Z,38.9
2023-05-25T20:40:18.507Z,39.5
2023-05-25T20:45:18.515Z,38.7
2023-05-25T20:50:18.462Z,39.2
2023-05-25T20:55:18.466Z,39.5
2023-05-25T21:00:18.535Z,39.0
2023-05-25T21:05:18.499Z,38.4
2023-05-25T21:10:18.563Z,38.9
2023-05-25T21:15:15.600Z,38.9
2023-05-25T21:20:18.614Z,38.2
2023-05-25T21:25:18.518Z,39.3
2023-05-25T21:30:18.698Z,38.6
2023-05-25T21:35:18.522Z,39.3
2023-05-25T21:40:15.573Z,38.7
2023-05-25T21:45:15.608Z,39.3
2023-05-25T21:50:18.505Z,39.0
2023-05-25T21:55:18.598Z,38.9
2023-05-25T22:00:18.537Z,39.3
2023-05-25T22:05:18.552Z,39.3
2023-05-25T22:10:18.534Z,38.5
2023-05-25T22:15:15.521Z,39.0
2023-05-25T22:20:18.592Z,38.4
2023-05-25T22:25:15.593Z,38.8
2023-05-25T22:30:15.586Z,38.7
2023-05-25T22:35:15.554Z,39.5
2023-05-25T22:40:18.565Z,38.7
2023-05-25T22:45:15.409Z,39.2
2023-05-25T22:50:18.664Z,39.2
2023-05-25T22:55:18.633Z,38.7
2023-05-25T23:00:18.629Z,38.3
2023-05-25T23:05:18.585Z,38.6
2023-05-25T23:10:18.550Z,38.3
2023-05-25T23:15:15.678Z,38.1
2023-05-25T23:20:18.687Z,38.1
2023-05-25T23:25:15.663Z,38.0
2023-05-25T23:30:15.736Z,37.9
2023-05-25T23:35:15.640Z,38.5
2023-05-25T23:40:18.626Z,39.0
2023-05-25T23:45:18.575Z,38.9
2023-05-25T23:50:18.547Z,39.2
2023-05-25T23:55:15.648Z,39.1
